sensor_id;sensor_type;location;lat;lon;timestamp;P1;durP1;ratioP1;P2;durP2;ratioP2
74519;SDS011;63002;48.134;-1.948;2022-08-19T12:51:11;4.57;;;0.90;;
74519;SDS011;63002;48.134;-1.948;2022-08-19T12:53:39;6.00;;;1.10;;
74519;SDS011;63002;48.134;-1.948;2022-08-19T12:56:09;8.02;;;1.10;;
74519;SDS011;63002;48.134;-1.948;2022-08-19T12:58:36;5.72;;;1.20;;
74519;SDS011;63002;48.134;-1.948;2022-08-19T13:01:06;6.18;;;1.00;;
74519;SDS011;63002;48.134;-1.948;2022-08-19T13:03:35;5.05;;;0.85;;
74519;SDS011;63002;48.134;-1.948;2022-08-19T13:06:02;5.85;;;1.00;;
74519;SDS011;63002;48.134;-1.948;2022-08-19T13:08:27;6.43;;;1.20;;
74519;SDS011;63002;48.134;-1.948;2022-08-19T13:10:53;5.70;;;1.20;;
74519;SDS011;63002;48.134;-1.948;2022-08-19T13:13:19;6.60;;;1.10;;
74519;SDS011;63002;48.134;-1.948;2022-08-19T13:15:45;8.37;;;1.10;;
74519;SDS011;63002;48.134;-1.948;2022-08-19T13:18:11;5.65;;;1.55;;
74519;SDS011;63002;48.134;-1.948;2022-08-19T13:20:37;5.63;;;1.00;;
74519;SDS011;63002;48.134;-1.948;2022-08-19T13:23:05;5.65;;;1.40;;
74519;SDS011;63002;48.134;-1.948;2022-08-19T13:25:31;8.13;;;1.30;;
74519;SDS011;63002;48.134;-1.948;2022-08-19T13:27:57;4.78;;;1.10;;
74519;SDS011;63002;48.134;-1.948;2022-08-19T13:30:25;7.72;;;0.73;;
74519;SDS011;63002;48.134;-1.948;2022-08-19T13:33:09;6.25;;;1.05;;
74519;SDS011;63002;48.134;-1.948;2022-08-19T13:35:44;4.88;;;1.27;;
74519;SDS011;63002;48.134;-1.948;2022-08-19T13:38:16;4.88;;;0.93;;
74519;SDS011;63002;48.134;-1.948;2022-08-19T13:40:43;8.52;;;1.10;;
74519;SDS011;63002;48.134;-1.948;2022-08-19T13:43:09;2.95;;;0.80;;
74519;SDS011;63002;48.134;-1.948;2022-08-19T13:45:35;6.77;;;0.93;;
74519;SDS011;63002;48.134;-1.948;2022-08-19T13:48:03;4.50;;;0.93;;
74519;SDS011;63002;48.134;-1.948;2022-08-19T13:50:31;3.75;;;0.70;;
74519;SDS011;63002;48.134;-1.948;2022-08-19T13:52:58;3.47;;;0.47;;
74519;SDS011;63002;48.134;-1.948;2022-08-19T13:55:25;2.67;;;0.43;;
74519;SDS011;63002;48.134;-1.948;2022-08-19T13:57:52;6.10;;;0.50;;
74519;SDS011;63002;48.134;-1.948;2022-08-19T14:00:20;2.97;;;0.50;;
74519;SDS011;63002;48.134;-1.948;2022-08-19T14:02:47;6.53;;;0.70;;
74519;SDS011;63002;48.134;-1.948;2022-08-19T14:05:16;4.97;;;0.60;;
74519;SDS011;63002;48.134;-1.948;2022-08-19T14:07:42;4.10;;;0.70;;
74519;SDS011;63002;48.134;-1.948;2022-08-19T14:10:09;4.88;;;0.60;;
74519;SDS011;63002;48.134;-1.948;2022-08-19T14:12:35;6.35;;;0.50;;
74519;SDS011;63002;48.134;-1.948;2022-08-19T14:15:02;6.13;;;0.70;;
74519;SDS011;63002;48.134;-1.948;2022-08-19T14:17:29;2.88;;;0.50;;
74519;SDS011;63002;48.134;-1.948;2022-08-19T14:19:58;2.78;;;0.68;;
74519;SDS011;63002;48.134;-1.948;2022-08-19T14:22:29;3.05;;;0.43;;
74519;SDS011;63002;48.134;-1.948;2022-08-19T14:24:58;2.22;;;0.50;;
74519;SDS011;63002;48.134;-1.948;2022-08-19T14:27:24;3.55;;;0.60;;
74519;SDS011;63002;48.134;-1.948;2022-08-19T14:29:53;3.20;;;0.52;;
74519;SDS011;63002;48.134;-1.948;2022-08-19T14:32:20;2.88;;;0.50;;
